Meath Environmental Platform

Observations for Trim Patrick St

Time AQI Temp °C Hum % Pres Pa CO μg/m³ H₂S μg/m³ NO μg/m³ NO₂ μg/m³ O₃ μg/m³ SO₂ μg/m³ PM1 μg/m³ PM2.5 μg/m³ PM10 μg/m³
Friday 31 July 2026
11:49 2 26 36 68,906 0 0 2.07 6.54 69.42 6.95 2.86 8.87 9.76
11:48 2 26.1 37 68,922 0 0 1.99 7.01 65.4 8.1 2.86 8.82 9.7
11:47 2 26.2 36 68,937 0 0 2.03 8.56 66.6 7.51 3.71 11.22 12.35
11:46 2 26.3 36 68,957 0 0 1.97 9.75 68.28 8.14 3.71 11.22 12.35
11:45 2 26.3 35 68,955 0.02 0 2.11 6.02 54.45 6.95 4.57 12.1 13.31
11:44 2 26.3 36 68,981 0.04 0 2.1 4.59 57.2 7.1 2.86 9.71 10.68
11:43 2 26.4 38 68,981 0.04 0 1.8 8.44 55.07 7.55 4.57 10.35 11.39
11:42 2 26.3 38 68,981 0.05 0 1.81 9.26 65.25 7.02 3.71 10.32 11.35
11:41 2 26.2 37 68,979 0.07 0 1.98 7.95 52.6 6.14 3.71 10.4 11.44
11:40 2 26.1 40 68,977 0.08 0 1.7 6.18 63.19 6.64 4.57 11.75 12.93
11:39 2 26 42 68,979 0.05 0 1.6 7.49 53.25 6.54 3.71 10.05 11.05
11:38 2 25.8 40 68,949 0.05 0 1.88 10.24 64.61 6.56 2.86 10.21 11.23
11:37 2 25.6 40 68,939 0.06 0 1.96 9.8 60.52 7.3 2.86 9.43 10.37
11:36 2 25.5 41 68,924 0.03 0 1.91 12.46 76.91 6.18 2.86 8.57 9.43
11:35 2 25.3 39 68,904 0.01 0 2.06 9.47 65.28 6.06 3.71 10.23 11.26
11:34 2 25.1 43 68,908 0.02 0 1.8 10.07 68.83 5.52 3.71 9.98 10.98
11:33 2 25 41 68,918 0 0 1.94 9.8 65.98 6.11 3.71 10.1 11.11
11:32 2 24.7 42 68,898 0 0 1.82 9.3 71.65 5.38 2.86 9.22 10.15
11:31 2 24.5 43 68,902 0 0 1.92 9.64 80.86 5.77 2 8.42 9.27
11:30 2 24.4 42 68,880 0.01 0 1.96 9.17 83.01 5.92 4.57 10.78 11.86